Time;durP1;ratioP1;P1;durP2;ratioP2;P2;SDS_P1;SDS_P2;PMS_P1;PMS_P2;Temp;Humidity;BMP_temperature;BMP_pressure;BME280_temperature;BME280_humidity;BME280_pressure;Samples;Min_cycle;Max_cycle;Signal;HPM_P1;HPM_P2
2022/05/16 00:01:54;;;;;;;7.82;3.47;;;21.10;99.90;;;;;;5073491;28;20169;-66
2022/05/16 00:04:20;;;;;;;2.88;2.67;;;21.10;99.90;;;;;;5073097;28;20634;-66
2022/05/16 00:06:46;;;;;;;3.00;2.80;;;21.10;99.90;;;;;;5073162;28;20171;-65
2022/05/16 00:09:11;;;;;;;3.72;2.80;;;21.10;99.90;;;;;;5073079;28;20173;-66
2022/05/16 00:11:37;;;;;;;4.72;2.90;;;21.10;99.90;;;;;;5073007;28;20220;-67
2022/05/16 00:14:03;;;;;;;3.80;3.17;;;21.10;99.90;;;;;;5071917;28;20647;-67
2022/05/16 00:16:29;;;;;;;4.53;2.85;;;21.10;99.90;;;;;;5073083;28;20176;-67
2022/05/16 00:18:54;;;;;;;3.67;3.15;;;21.00;99.90;;;;;;5072859;28;20278;-67
2022/05/16 00:21:20;;;;;;;6.15;3.05;;;21.00;99.90;;;;;;5073205;28;20199;-65
2022/05/16 00:23:46;;;;;;;4.25;3.28;;;21.00;99.90;;;;;;5073068;28;20168;-67
2022/05/16 00:26:12;;;;;;;4.05;3.00;;;21.00;99.90;;;;;;5073140;28;20199;-67
2022/05/16 00:28:37;;;;;;;3.38;3.00;;;20.90;99.90;;;;;;5073153;28;20177;-65
2022/05/16 00:31:04;;;;;;;3.80;3.20;;;20.90;99.90;;;;;;5072777;28;20216;-66
2022/05/16 00:33:30;;;;;;;5.65;3.05;;;20.90;99.90;;;;;;5076321;28;20169;-67
2022/05/16 00:35:56;;;;;;;5.32;3.40;;;20.90;99.90;;;;;;5076947;28;20632;-66
2022/05/16 00:38:22;;;;;;;5.07;2.90;;;21.00;99.90;;;;;;5077053;28;20255;-66
2022/05/16 00:40:47;;;;;;;3.50;3.00;;;21.10;99.90;;;;;;5076983;28;20501;-66
2022/05/16 00:43:14;;;;;;;4.60;3.13;;;21.00;99.90;;;;;;5075694;28;20696;-68
2022/05/16 00:45:40;;;;;;;7.43;3.08;;;20.90;99.90;;;;;;5076826;28;20176;-67
2022/05/16 00:48:06;;;;;;;3.22;2.92;;;21.00;99.90;;;;;;5076396;28;20172;-66
2022/05/16 00:50:39;;;;;;;5.57;3.03;;;20.90;99.90;;;;;;5075464;28;20575;-66
2022/05/16 00:53:05;;;;;;;4.25;3.00;;;20.90;99.90;;;;;;5076837;28;20160;-67
2022/05/16 00:55:35;;;;;;;4.93;3.08;;;20.80;99.90;;;;;;5076484;28;20176;-66
2022/05/16 00:58:07;;;;;;;4.35;3.35;;;20.80;99.90;;;;;;5076342;28;20213;-66
2022/05/16 01:00:36;;;;;;;3.05;2.78;;;20.90;99.90;;;;;;5076689;28;20496;-66
2022/05/16 01:05:59;;;;;;;6.15;2.90;;;20.90;99.90;;;;;;5076652;28;20179;-67
2022/05/16 01:08:28;;;;;;;3.30;3.00;;;20.90;99.90;;;;;;5076474;28;20172;-68
2022/05/16 01:10:57;;;;;;;5.55;3.20;;;21.00;99.90;;;;;;5076440;28;20221;-67
2022/05/16 01:13:25;;;;;;;3.35;2.67;;;21.00;99.90;;;;;;5076251;28;20188;-67
2022/05/16 01:15:50;;;;;;;3.83;3.10;;;21.00;99.90;;;;;;5075883;28;20529;-66
2022/05/16 01:18:19;;;;;;;3.45;3.10;;;21.10;99.90;;;;;;5076150;28;20172;-67
2022/05/16 01:21:14;;;;;;;3.88;2.92;;;21.10;99.90;;;;;;5075979;28;20181;-67
2022/05/16 01:23:45;;;;;;;4.35;2.92;;;21.20;99.90;;;;;;5076038;28;20165;-67
2022/05/16 01:26:16;;;;;;;4.45;2.88;;;21.20;99.90;;;;;;5076116;28;20172;-67
2022/05/16 01:28:42;;;;;;;3.10;2.83;;;21.10;99.90;;;;;;5075974;28;20164;-67
2022/05/16 01:31:08;;;;;;;3.10;2.85;;;21.10;99.90;;;;;;5075600;28;20572;-67
2022/05/16 01:33:34;;;;;;;4.90;3.00;;;21.10;99.90;;;;;;5076123;28;20160;-67
2022/05/16 01:35:59;;;;;;;3.88;2.80;;;21.10;99.90;;;;;;5075970;28;20172;-68
2022/05/16 01:38:27;;;;;;;5.32;2.80;;;21.10;99.90;;;;;;5074653;28;20177;-68
2022/05/16 01:40:56;;;;;;;3.65;2.70;;;21.10;99.90;;;;;;5075774;28;20177;-68
2022/05/16 01:43:26;;;;;;;4.90;2.83;;;21.10;99.90;;;;;;5075058;28;20531;-67
2022/05/16 01:45:51;;;;;;;3.83;3.03;;;21.10;99.90;;;;;;5075403;28;20165;-66
2022/05/16 01:48:19;;;;;;;4.55;2.85;;;21.20;99.90;;;;;;5075712;28;20168;-67
2022/05/16 01:50:47;;;;;;;4.20;2.63;;;21.20;99.90;;;;;;5075447;28;20212;-67
2022/05/16 01:53:13;;;;;;;7.18;2.92;;;21.20;99.90;;;;;;5075487;28;20187;-66
2022/05/16 01:55:39;;;;;;;4.28;3.00;;;21.10;99.90;;;;;;5075683;28;20210;-66
2022/05/16 01:58:05;;;;;;;5.32;2.97;;;21.20;99.90;;;;;;5075296;28;20216;-66
2022/05/16 02:00:32;;;;;;;4.30;3.40;;;21.20;99.90;;;;;;5075300;28;20256;-66
2022/05/16 02:02:59;;;;;;;4.72;2.80;;;21.10;99.90;;;;;;5075545;28;20165;-66
2022/05/16 02:05:25;;;;;;;4.78;3.30;;;21.20;99.90;;;;;;5075238;28;20179;-66
2022/05/16 02:07:51;;;;;;;3.55;3.10;;;21.10;99.90;;;;;;5075375;28;20160;-66
2022/05/16 02:10:19;;;;;;;4.43;2.75;;;21.10;99.90;;;;;;5075103;28;20211;-66
2022/05/16 02:12:45;;;;;;;2.95;2.60;;;21.00;99.90;;;;;;5075202;28;20173;-67
2022/05/16 02:15:14;;;;;;;5.15;3.00;;;21.00;99.90;;;;;;5074937;28;20168;-67
2022/05/16 02:17:40;;;;;;;3.88;2.97;;;20.90;99.90;;;;;;5075060;28;20165;-67
2022/05/16 02:20:06;;;;;;;3.28;2.97;;;20.90;99.90;;;;;;5073797;28;20230;-67
2022/05/16 02:25:16;;;;;;;4.90;2.55;;;20.90;99.90;;;;;;5074937;28;20183;-66
2022/05/16 02:27:43;;;;;;;6.57;3.00;;;20.80;99.90;;;;;;5075118;28;20169;-66
2022/05/16 02:30:10;;;;;;;5.07;2.90;;;20.80;99.90;;;;;;5074470;28;20208;-66
2022/05/16 02:32:36;;;;;;;3.80;2.90;;;20.80;99.90;;;;;;5074583;28;20216;-65
2022/05/16 02:35:02;;;;;;;3.88;2.90;;;20.80;99.90;;;;;;5074666;28;20176;-65
2022/05/16 02:37:28;;;;;;;4.85;2.75;;;20.80;99.90;;;;;;5074688;28;20168;-66
2022/05/16 02:39:54;;;;;;;3.03;2.70;;;20.80;99.90;;;;;;5073149;28;20197;-65
2022/05/16 02:42:20;;;;;;;4.63;3.10;;;20.80;99.90;;;;;;5073219;28;20636;-66
2022/05/16 02:44:45;;;;;;;5.25;3.60;;;20.80;99.90;;;;;;5074624;28;20184;-66
2022/05/16 02:47:17;;;;;;;4.63;3.10;;;20.80;99.90;;;;;;5074614;28;20161;-65
2022/05/16 02:49:43;;;;;;;4.43;2.97;;;20.90;99.90;;;;;;5073048;28;20204;-66
2022/05/16 02:52:09;;;;;;;4.63;3.05;;;21.00;99.90;;;;;;5072912;28;20703;-67
2022/05/16 02:54:35;;;;;;;3.75;2.72;;;21.00;99.90;;;;;;5074264;28;20304;-66
2022/05/16 02:57:01;;;;;;;5.47;2.85;;;21.00;99.90;;;;;;5073888;28;20168;-66
2022/05/16 02:59:27;;;;;;;5.72;2.83;;;20.90;99.90;;;;;;5073935;28;20298;-66
2022/05/16 03:01:53;;;;;;;7.15;3.28;;;20.90;99.90;;;;;;5074148;28;20169;-66
2022/05/16 03:04:19;;;;;;;3.00;2.75;;;21.00;99.90;;;;;;5074061;28;20204;-65
2022/05/16 03:06:45;;;;;;;5.32;2.85;;;21.00;99.90;;;;;;5073860;28;20208;-66
2022/05/16 03:09:11;;;;;;;5.65;2.92;;;21.10;99.90;;;;;;5073790;28;20301;-65
2022/05/16 03:11:37;;;;;;;5.30;2.75;;;21.10;99.90;;;;;;5073520;28;20184;-66
2022/05/16 03:14:03;;;;;;;5.57;2.53;;;21.10;99.90;;;;;;5073963;28;20165;-65
2022/05/16 03:16:29;;;;;;;3.67;2.92;;;21.10;99.90;;;;;;5073931;28;20177;-66
2022/05/16 03:18:55;;;;;;;2.88;2.45;;;21.10;99.90;;;;;;5073411;28;20198;-66
2022/05/16 03:21:22;;;;;;;3.10;2.83;;;21.10;99.90;;;;;;5073160;28;20172;-66
2022/05/16 03:23:48;;;;;;;4.40;3.20;;;21.00;99.90;;;;;;5073727;28;20233;-66
2022/05/16 03:26:14;;;;;;;4.55;3.33;;;21.10;99.90;;;;;;5072270;28;20169;-66
2022/05/16 03:28:39;;;;;;;4.80;2.55;;;21.10;99.90;;;;;;5072516;28;20172;-67
2022/05/16 03:31:05;;;;;;;3.78;2.67;;;21.20;99.90;;;;;;5073283;28;20664;-65
2022/05/16 03:33:30;;;;;;;4.35;2.90;;;21.20;99.90;;;;;;5073490;28;20160;-66
2022/05/16 03:35:56;;;;;;;4.63;2.92;;;21.30;99.90;;;;;;5073136;28;20192;-67
2022/05/16 03:41:11;;;;;;;4.80;2.80;;;21.30;99.90;;;;;;5073117;28;20179;-66
2022/05/16 03:43:38;;;;;;;3.50;2.60;;;21.30;99.90;;;;;;5073242;28;20251;-66
2022/05/16 03:46:04;;;;;;;12.93;4.32;;;21.30;99.90;;;;;;5073082;28;20203;-66
2022/05/16 03:48:31;;;;;;;11.57;3.70;;;21.20;99.90;;;;;;5072521;28;20173;-66
2022/05/16 03:50:56;;;;;;;11.18;3.80;;;21.30;99.90;;;;;;5072924;28;20297;-66
2022/05/16 03:53:22;;;;;;;3.35;3.05;;;21.30;99.90;;;;;;5072793;28;20628;-66
2022/05/16 03:55:47;;;;;;;3.90;2.85;;;21.20;99.90;;;;;;5072595;28;20178;-66
2022/05/16 03:58:13;;;;;;;3.00;2.70;;;21.10;99.90;;;;;;5072770;28;20647;-66
2022/05/16 04:00:39;;;;;;;3.72;2.65;;;21.00;99.90;;;;;;5073388;28;20526;-66
2022/05/16 04:03:05;;;;;;;3.03;2.72;;;20.90;1.00;;;;;;5071821;28;20195;-66
2022/05/16 04:05:30;;;;;;;5.70;2.90;;;20.80;1.00;;;;;;5072730;28;20651;-66
2022/05/16 04:07:56;;;;;;;5.72;2.75;;;20.70;1.00;;;;;;5071332;28;20566;-65
2022/05/16 04:10:23;;;;;;;9.30;3.40;;;20.60;1.00;;;;;;5071962;28;20226;-66
2022/05/16 04:12:48;;;;;;;7.43;3.20;;;20.70;1.00;;;;;;5071849;28;20524;-65
2022/05/16 04:15:14;;;;;;;4.10;3.00;;;20.70;1.00;;;;;;5072837;28;20177;-65
2022/05/16 04:17:41;;;;;;;7.13;3.10;;;20.70;1.00;;;;;;5072549;28;20243;-65
2022/05/16 04:20:07;;;;;;;4.97;3.08;;;20.80;1.00;;;;;;5072731;28;20632;-65
2022/05/16 04:22:34;;;;;;;6.13;2.53;;;20.80;1.00;;;;;;5072537;28;20651;-66
2022/05/16 04:24:59;;;;;;;6.20;2.95;;;20.80;1.00;;;;;;5072256;28;20731;-66
2022/05/16 04:27:25;;;;;;;4.45;2.80;;;20.90;1.00;;;;;;5071387;28;20267;-66
2022/05/16 04:29:50;;;;;;;6.22;3.05;;;20.90;1.00;;;;;;5072630;28;20212;-66
2022/05/16 04:32:16;;;;;;;10.57;2.90;;;20.90;1.00;;;;;;5072550;28;20171;-66
2022/05/16 04:34:42;;;;;;;9.07;2.63;;;20.80;1.00;;;;;;5072065;28;20658;-66
2022/05/16 04:37:07;;;;;;;3.60;2.60;;;20.80;1.00;;;;;;5072850;28;20182;-66
2022/05/16 04:39:33;;;;;;;4.13;2.58;;;20.80;1.00;;;;;;5071872;28;20611;-65
2022/05/16 04:44:43;;;;;;;5.43;3.03;;;20.80;1.00;;;;;;5072651;28;20233;-66
2022/05/16 04:47:09;;;;;;;5.47;3.00;;;20.80;1.00;;;;;;5072408;28;20632;-66
2022/05/16 04:49:35;;;;;;;5.07;2.67;;;20.80;1.00;;;;;;5071971;28;20193;-66
2022/05/16 04:52:01;;;;;;;4.43;2.55;;;20.80;1.00;;;;;;5072152;28;20256;-65
2022/05/16 04:54:27;;;;;;;3.67;2.65;;;20.80;1.00;;;;;;5071443;28;20196;-67
2022/05/16 04:56:53;;;;;;;8.07;2.83;;;20.80;1.00;;;;;;5072407;28;20188;-66
2022/05/16 04:59:20;;;;;;;5.82;2.67;;;20.90;1.00;;;;;;5071584;28;20303;-66
2022/05/16 05:01:46;;;;;;;6.60;2.85;;;21.00;1.00;;;;;;5071968;28;20176;-66
2022/05/16 05:04:12;;;;;;;5.70;2.88;;;21.10;1.00;;;;;;5072202;28;20172;-66
2022/05/16 05:06:39;;;;;;;3.72;2.85;;;21.30;1.00;;;;;;5072057;28;20670;-67
2022/05/16 05:09:05;;;;;;;7.53;3.90;;;21.40;1.00;;;;;;5071272;28;20177;-66
2022/05/16 05:14:33;;;;;;;6.97;3.45;;;21.60;1.00;;;;;;5072203;28;20171;-66
2022/05/16 05:17:05;;;;;;;9.13;3.22;;;21.70;1.00;;;;;;5071613;28;20173;-67
2022/05/16 05:19:31;;;;;;;7.10;3.30;;;21.90;1.00;;;;;;5073111;28;20298;-66
2022/05/16 05:21:57;;;;;;;6.25;3.10;;;22.00;99.90;;;;;;5075658;28;20208;-67
2022/05/16 05:24:23;;;;;;;5.18;3.30;;;22.10;99.90;;;;;;5075065;28;20173;-66
2022/05/16 05:26:48;;;;;;;5.32;3.50;;;22.30;99.90;;;;;;5075342;28;20275;-67
2022/05/16 05:29:16;;;;;;;8.45;3.72;;;22.40;99.90;;;;;;5074676;28;20168;-66
2022/05/16 05:31:42;;;;;;;3.08;2.80;;;22.70;99.90;;;;;;5074850;28;20238;-66
2022/05/16 05:34:10;;;;;;;8.93;3.20;;;23.30;99.90;;;;;;5073407;28;20172;-67
2022/05/16 05:36:35;;;;;;;5.00;2.80;;;24.20;99.90;;;;;;5073986;28;20624;-66
2022/05/16 05:39:02;;;;;;;11.50;3.60;;;24.50;99.90;;;;;;5074953;28;20174;-66
2022/05/16 05:41:28;;;;;;;4.38;3.33;;;24.50;99.90;;;;;;5074740;28;20192;-67
2022/05/16 05:43:54;;;;;;;7.90;3.70;;;24.40;99.90;;;;;;5074579;28;20235;-67
2022/05/16 05:46:20;;;;;;;7.95;3.28;;;24.00;99.90;;;;;;5074064;28;20168;-66
2022/05/16 05:48:46;;;;;;;4.05;3.08;;;24.10;99.90;;;;;;5074476;28;20196;-67
2022/05/16 05:51:14;;;;;;;6.00;3.53;;;25.00;99.90;;;;;;5074500;28;20259;-68
2022/05/16 05:53:41;;;;;;;6.22;3.50;;;26.50;99.90;;;;;;5074467;28;20259;-67
2022/05/16 05:56:07;;;;;;;10.43;3.58;;;26.60;99.90;;;;;;5074012;28;20184;-67
2022/05/16 05:58:34;;;;;;;9.82;3.80;;;26.30;99.90;;;;;;5074584;28;20278;-68
2022/05/16 06:01:01;;;;;;;6.35;3.40;;;27.00;99.90;;;;;;5073768;28;20248;-70
2022/05/16 06:03:27;;;;;;;8.90;3.47;;;28.10;99.90;;;;;;5073975;28;20252;-68
2022/05/16 06:05:53;;;;;;;3.88;2.97;;;30.00;99.90;;;;;;5073906;28;20585;-70
2022/05/16 06:08:19;;;;;;;7.43;3.42;;;31.00;99.90;;;;;;5073606;28;20169;-69
2022/05/16 06:10:45;;;;;;;18.45;4.38;;;32.00;78.90;;;;;;5072625;28;20287;-69
2022/05/16 06:13:11;;;;;;;6.45;3.10;;;32.80;58.10;;;;;;5073918;28;20165;-68
2022/05/16 06:15:37;;;;;;;7.47;2.88;;;33.00;47.40;;;;;;5074451;28;20164;-69
2022/05/16 06:18:03;;;;;;;6.50;3.53;;;34.00;33.50;;;;;;5074118;28;20651;-69
2022/05/16 06:20:30;;;;;;;8.85;4.20;;;35.10;21.40;;;;;;5073169;28;20165;-69
2022/05/16 06:22:56;;;;;;;8.43;3.33;;;35.60;11.60;;;;;;5071877;28;20631;-68
2022/05/16 06:25:32;;;;;;;5.63;3.40;;;36.50;2.00;;;;;;5073698;28;20215;-68
2022/05/16 06:28:16;;;;;;;10.55;3.38;;;36.70;1.00;;;;;;5073686;28;20255;-69
2022/05/16 06:30:45;;;;;;;6.63;3.00;;;36.00;1.00;;;;;;5071847;28;20617;-69
2022/05/16 06:33:12;;;;;;;5.82;3.83;;;35.90;1.00;;;;;;5073302;28;20646;-68
2022/05/16 06:35:38;;;;;;;5.68;2.45;;;36.20;1.00;;;;;;5073114;28;20182;-68
2022/05/16 06:38:16;;;;;;;4.28;2.45;;;35.40;1.00;;;;;;5073542;28;20171;-68
2022/05/16 06:40:46;;;;;;;3.85;2.30;;;35.50;1.00;;;;;;5072862;28;20164;-68
2022/05/16 06:43:12;;;;;;;9.05;3.47;;;35.50;1.00;;;;;;5073668;28;20168;-68
2022/05/16 06:45:38;;;;;;;5.68;2.80;;;35.60;1.00;;;;;;5073595;28;20658;-68
2022/05/16 06:48:04;;;;;;;6.07;2.92;;;36.10;1.00;;;;;;5072907;28;20180;-68
2022/05/16 06:50:30;;;;;;;4.97;2.60;;;36.20;1.00;;;;;;5072460;28;20216;-69
2022/05/16 06:52:56;;;;;;;9.30;2.47;;;36.00;1.00;;;;;;5073078;28;20693;-70
2022/05/16 06:55:21;;;;;;;6.18;2.70;;;35.60;1.00;;;;;;5063482;28;20177;-69
2022/05/16 06:57:47;;;;;;;4.90;2.85;;;35.10;1.00;;;;;;5054334;28;20208;-69
2022/05/16 07:00:14;;;;;;;5.93;2.88;;;35.10;1.00;;;;;;5067685;28;20272;-71
2022/05/16 07:02:40;;;;;;;12.88;2.65;;;35.70;1.00;;;;;;5054318;28;20539;-70
2022/05/16 07:05:06;;;;;;;7.40;2.63;;;36.20;1.00;;;;;;5051648;28;20170;-71
2022/05/16 07:07:41;;;;;;;8.38;2.95;;;36.30;1.00;;;;;;5052879;28;20185;-69
2022/05/16 07:10:07;;;;;;;8.40;2.92;;;35.40;1.00;;;;;;5052393;28;20558;-67
2022/05/16 07:12:33;;;;;;;4.47;2.33;;;35.10;1.00;;;;;;5052210;28;20169;-70
2022/05/16 07:14:59;;;;;;;5.53;2.38;;;34.20;1.00;;;;;;5051968;28;20181;-70
2022/05/16 07:17:24;;;;;;;4.05;2.58;;;33.80;1.00;;;;;;5052694;28;20170;-70
2022/05/16 07:19:51;;;;;;;2.90;2.50;;;34.40;1.00;;;;;;5051966;28;20170;-69
2022/05/16 07:22:25;;;;;;;3.42;2.60;;;34.80;1.00;;;;;;5052751;28;20256;-69
2022/05/16 07:24:52;;;;;;;3.65;2.53;;;35.50;1.00;;;;;;5052710;28;20557;-69
2022/05/16 07:30:05;;;;;;;8.05;2.63;;;34.60;1.00;;;;;;5053344;28;20195;-69
2022/05/16 07:32:41;;;;;;;3.28;2.88;;;32.90;1.00;;;;;;5052803;28;20170;-68
2022/05/16 07:35:10;;;;;;;7.68;2.85;;;31.60;1.00;;;;;;5051778;28;20184;-68
2022/05/16 07:37:35;;;;;;;8.75;3.30;;;31.10;2.70;;;;;;5051606;28;20165;-68
2022/05/16 07:40:01;;;;;;;7.07;3.40;;;30.10;8.40;;;;;;5065583;28;20199;-69
2022/05/16 07:42:27;;;;;;;8.57;3.10;;;29.60;15.50;;;;;;5059121;28;20651;-69
2022/05/16 07:44:53;;;;;;;5.75;2.63;;;30.50;17.30;;;;;;5060056;28;20184;-70
2022/05/16 07:47:18;;;;;;;6.80;3.15;;;31.90;11.80;;;;;;5059223;28;20180;-69
2022/05/16 07:49:44;;;;;;;6.90;3.28;;;32.90;8.60;;;;;;5060237;28;20212;-70
2022/05/16 07:52:10;;;;;;;4.88;2.80;;;33.70;3.50;;;;;;5060579;28;20172;-69
2022/05/16 07:54:37;;;;;;;5.60;3.10;;;33.10;3.60;;;;;;5059069;28;20187;-70
2022/05/16 07:57:04;;;;;;;3.00;2.72;;;33.80;1.00;;;;;;5057599;28;20177;-69
2022/05/16 07:59:30;;;;;;;5.03;2.50;;;33.00;6.80;;;;;;5059709;28;20229;-70
2022/05/16 08:01:56;;;;;;;3.45;3.00;;;33.10;6.10;;;;;;5059198;28;20299;-70
2022/05/16 08:04:22;;;;;;;3.38;2.97;;;32.80;4.50;;;;;;5059360;28;20272;-70
2022/05/16 08:06:48;;;;;;;8.25;3.13;;;32.20;9.40;;;;;;5060667;28;20287;-70
2022/05/16 08:11:58;;;;;;;7.40;3.15;;;33.90;3.20;;;;;;5074851;28;20195;-70
2022/05/16 08:14:23;;;;;;;3.58;3.20;;;34.10;17.20;;;;;;5072188;28;20711;-69
2022/05/16 08:16:49;;;;;;;6.60;3.40;;;34.50;1.00;;;;;;5070121;28;20596;-67
2022/05/16 08:19:14;;;;;;;5.03;3.20;;;32.40;4.10;;;;;;5088131;28;20221;-68
2022/05/16 08:21:41;;;;;;;7.53;3.40;;;30.50;14.20;;;;;;5077991;28;20168;-68
2022/05/16 08:24:09;;;;;;;7.85;3.90;;;29.70;22.10;;;;;;5082555;28;20259;-68
2022/05/16 08:26:36;;;;;;;7.05;3.72;;;29.00;31.80;;;;;;5085742;28;20172;-69
2022/05/16 08:29:02;;;;;;;8.82;3.47;;;29.50;41.80;;;;;;5075753;28;20173;-69
2022/05/16 08:31:28;;;;;;;4.63;3.65;;;29.80;43.70;;;;;;5087168;28;20205;-69
2022/05/16 08:33:56;;;;;;;4.85;3.60;;;31.00;34.00;;;;;;5079154;28;20250;-70
2022/05/16 08:41:58;;;;;;;6.43;3.72;;;31.50;26.70;;;;;;5079524;28;20187;-69
2022/05/16 08:44:47;;;;;;;6.57;4.25;;;31.20;27.50;;;;;;5079629;28;20199;-69
2022/05/16 08:47:24;;;;;;;10.38;4.55;;;30.50;31.50;;;;;;5088060;28;20572;-68
2022/05/16 08:50:01;;;;;;;8.13;4.50;;;29.10;45.80;;;;;;5079247;28;20199;-68
2022/05/16 08:53:00;;;;;;;8.02;4.50;;;28.20;64.10;;;;;;5077922;28;20164;-67
2022/05/16 08:55:25;;;;;;;8.48;4.75;;;27.10;95.10;;;;;;5063686;28;20179;-66
2022/05/16 08:57:59;;;;;;;7.78;4.93;;;26.30;99.90;;;;;;5087953;28;20517;-67
2022/05/16 09:00:48;;;;;;;10.52;4.50;;;25.90;99.90;;;;;;5087255;28;20228;-68
2022/05/16 09:03:23;;;;;;;7.75;4.90;;;25.60;99.90;;;;;;5078584;28;20188;-67
2022/05/16 09:05:55;;;;;;;6.57;4.85;;;25.30;99.90;;;;;;5095519;28;20167;-66
2022/05/16 09:08:43;;;;;;;7.68;5.47;;;25.10;99.90;;;;;;5095203;28;20172;-67
2022/05/16 09:11:16;;;;;;;11.35;5.70;;;25.10;99.90;;;;;;5076820;28;20265;-66
2022/05/16 09:13:56;;;;;;;6.60;5.03;;;24.80;1.00;;;;;;5081214;28;20167;-66
2022/05/16 09:16:24;;;;;;;10.02;5.78;;;24.50;1.00;;;;;;5081896;28;20323;-65
2022/05/16 09:19:01;;;;;;;15.80;5.10;;;24.30;1.00;;;;;;5075528;28;20165;-66
2022/05/16 09:21:30;;;;;;;11.43;6.00;;;24.30;1.00;;;;;;5061899;28;20186;-66
2022/05/16 09:23:59;;;;;;;10.70;5.63;;;24.10;1.00;;;;;;5086729;28;20221;-66
2022/05/16 09:26:36;;;;;;;10.65;6.00;;;24.10;1.00;;;;;;5087344;28;20179;-66
2022/05/16 09:29:24;;;;;;;10.05;6.53;;;24.20;1.00;;;;;;5094230;28;20172;-66
2022/05/16 09:31:54;;;;;;;10.35;6.22;;;24.40;1.00;;;;;;5074968;28;20180;-66
2022/05/16 09:34:20;;;;;;;7.45;6.13;;;24.50;1.00;;;;;;5084889;28;20167;-66
2022/05/16 09:36:51;;;;;;;11.07;6.47;;;24.50;1.00;;;;;;5080283;28;20534;-65
2022/05/16 09:39:25;;;;;;;9.88;5.80;;;24.30;1.00;;;;;;5074754;28;20573;-65
2022/05/16 09:42:04;;;;;;;9.77;6.80;;;24.50;14.10;;;;;;5074680;28;20169;-66
2022/05/16 09:44:55;;;;;;;8.93;6.32;;;24.50;99.90;;;;;;5074283;28;20164;-67
2022/05/16 09:47:34;;;;;;;9.43;6.72;;;24.50;99.90;;;;;;5074914;28;20214;-67
2022/05/16 09:50:02;;;;;;;8.57;6.78;;;24.10;1.00;;;;;;5074922;28;20200;-67
2022/05/16 09:52:30;;;;;;;12.30;7.45;;;23.70;1.00;;;;;;5074802;28;20169;-67
2022/05/16 09:55:13;;;;;;;11.68;6.88;;;23.70;1.00;;;;;;5075352;28;20705;-67
2022/05/16 09:57:53;;;;;;;10.48;7.40;;;23.70;1.00;;;;;;5074458;28;20207;-67
2022/05/16 10:00:19;;;;;;;8.73;7.60;;;23.40;1.00;;;;;;5074978;28;20311;-67
2022/05/16 10:02:54;;;;;;;13.23;8.43;;;22.80;1.00;;;;;;5074446;28;20255;-67
2022/05/16 10:05:27;;;;;;;12.43;8.65;;;22.80;99.90;;;;;;5074030;28;20222;-67
2022/05/16 10:08:01;;;;;;;14.65;8.63;;;22.60;99.90;;;;;;5075112;28;20188;-66
2022/05/16 10:10:32;;;;;;;16.55;9.65;;;22.50;99.90;;;;;;5074678;28;20219;-66
2022/05/16 10:12:58;;;;;;;11.98;8.65;;;22.60;1.00;;;;;;5074196;28;20179;-67
2022/05/16 10:15:24;;;;;;;10.95;8.32;;;22.60;37.90;;;;;;5074358;28;20255;-67
2022/05/16 10:17:52;;;;;;;11.80;8.65;;;22.60;1.00;;;;;;5074731;28;20168;-67
2022/05/16 10:20:22;;;;;;;14.23;8.88;;;22.60;1.00;;;;;;5072814;28;20565;-67
2022/05/16 10:22:52;;;;;;;14.07;8.77;;;22.60;1.00;;;;;;5074209;28;20169;-67
2022/05/16 10:25:23;;;;;;;14.48;8.30;;;22.50;99.90;;;;;;5074089;28;20244;-68
2022/05/16 10:27:51;;;;;;;8.60;7.60;;;22.70;1.00;;;;;;5073437;28;20165;-67
2022/05/16 10:30:22;;;;;;;13.65;8.10;;;22.70;99.90;;;;;;5074321;28;20209;-66
2022/05/16 10:35:47;;;;;;;10.55;7.45;;;22.70;1.00;;;;;;5073905;28;20176;-67
2022/05/16 10:38:40;;;;;;;15.77;8.13;;;22.70;99.90;;;;;;5073463;28;20180;-67
2022/05/16 10:41:13;;;;;;;9.68;7.72;;;23.00;1.00;;;;;;5072737;28;20164;-68
2022/05/16 10:43:57;;;;;;;10.65;7.40;;;23.10;1.00;;;;;;5074224;28;20172;-67
2022/05/16 10:46:30;;;;;;;12.68;7.68;;;23.40;1.00;;;;;;5073754;28;20626;-68
2022/05/16 10:49:02;;;;;;;9.32;6.57;;;23.90;1.00;;;;;;5073559;28;20176;-69
2022/05/16 10:51:46;;;;;;;9.82;6.57;;;24.20;99.90;;;;;;5072901;28;20257;-68
2022/05/16 10:54:22;;;;;;;8.73;6.15;;;24.90;1.00;;;;;;5073892;28;20168;-68
2022/05/16 10:57:15;;;;;;;8.55;6.05;;;25.20;1.00;;;;;;5062465;28;20216;-65
2022/05/16 11:00:14;;;;;;;10.63;6.35;;;25.60;1.00;;;;;;5074724;28;20703;-68
2022/05/16 11:03:13;;;;;;;11.75;5.65;;;25.50;1.00;;;;;;5071379;28;20504;-66
2022/05/16 11:06:10;;;;;;;6.80;4.68;;;24.90;1.00;;;;;;5089354;28;20169;-67
2022/05/16 11:09:00;;;;;;;9.90;4.40;;;24.40;1.00;;;;;;5071190;28;20180;-68
2022/05/16 11:11:39;;;;;;;11.13;5.03;;;24.80;1.00;;;;;;5072817;28;20212;-66
2022/05/16 11:14:17;;;;;;;8.65;4.57;;;24.90;1.00;;;;;;5073583;28;20172;-67
2022/05/16 11:16:43;;;;;;;6.72;4.07;;;24.90;99.90;;;;;;5072084;28;20183;-67
2022/05/16 11:19:42;;;;;;;6.00;4.13;;;24.80;99.90;;;;;;5071118;28;20256;-67
2022/05/16 11:22:16;;;;;;;10.70;4.60;;;24.70;99.90;;;;;;5093248;28;20164;-67
2022/05/16 11:24:50;;;;;;;9.80;4.93;;;24.70;99.90;;;;;;5078770;28;20178;-68
2022/05/16 11:27:15;;;;;;;10.93;4.85;;;25.20;99.90;;;;;;5068351;28;20384;-67
2022/05/16 11:30:00;;;;;;;7.45;5.07;;;25.70;99.90;;;;;;5063586;28;20172;-67
2022/05/16 11:32:32;;;;;;;9.13;4.00;;;26.50;99.90;;;;;;5063734;28;20188;-68
2022/05/16 11:35:03;;;;;;;6.30;4.38;;;26.30;99.90;;;;;;5062860;28;20169;-67
2022/05/16 11:37:42;;;;;;;6.18;3.78;;;26.40;99.90;;;;;;5062865;28;20167;-68
2022/05/16 11:40:26;;;;;;;8.10;3.58;;;25.90;99.90;;;;;;5063275;28;20184;-67
2022/05/16 11:43:15;;;;;;;7.05;4.22;;;25.80;99.90;;;;;;5064100;28;20188;-67
2022/05/16 11:46:17;;;;;;;7.38;3.97;;;25.60;99.90;;;;;;5062799;28;20161;-66
2022/05/16 11:48:52;;;;;;;7.30;3.83;;;25.80;99.90;;;;;;5062669;28;20248;-66
2022/05/16 11:51:36;;;;;;;11.10;4.07;;;25.20;99.90;;;;;;5063592;28;20638;-67
2022/05/16 11:54:04;;;;;;;8.93;4.25;;;25.10;99.90;;;;;;5063353;28;20173;-67
2022/05/16 12:02:16;;;;;;;8.10;3.60;;;25.20;99.90;;;;;;5063557;28;20219;-67
2022/05/16 12:04:53;;;;;;;7.80;3.70;;;25.20;99.90;;;;;;5063502;28;20168;-68
2022/05/16 12:07:29;;;;;;;9.00;3.83;;;25.20;99.90;;;;;;5064307;28;20163;-68
2022/05/16 12:10:23;;;;;;;6.75;4.00;;;25.50;99.90;;;;;;5060954;28;20246;-67
2022/05/16 12:13:28;;;;;;;7.00;4.20;;;25.40;99.90;;;;;;5062533;28;20181;-66
2022/05/16 12:16:18;;;;;;;7.40;4.13;;;25.10;99.90;;;;;;5064179;28;20161;-68
2022/05/16 12:19:06;;;;;;;12.10;4.18;;;24.50;99.90;;;;;;5062693;28;20626;-65
2022/05/16 12:21:33;;;;;;;9.80;4.20;;;24.50;99.90;;;;;;5064843;28;20172;-67
2022/05/16 12:24:22;;;;;;;10.38;3.85;;;24.60;99.90;;;;;;5063146;28;20235;-67
2022/05/16 12:26:48;;;;;;;11.93;3.83;;;24.70;99.90;;;;;;5042907;28;20205;-67
2022/05/16 12:29:18;;;;;;;13.15;4.13;;;24.60;99.90;;;;;;5067558;28;20204;-68
2022/05/16 12:31:50;;;;;;;7.53;3.70;;;24.50;99.90;;;;;;5068577;28;20184;-66
2022/05/16 12:34:33;;;;;;;7.10;3.83;;;24.30;99.90;;;;;;5068100;28;20179;-66
2022/05/16 12:37:06;;;;;;;9.02;3.42;;;24.30;99.90;;;;;;5067294;28;20259;-66
2022/05/16 12:39:54;;;;;;;9.73;3.40;;;24.30;99.90;;;;;;5070949;28;20296;-66
2022/05/16 12:42:32;;;;;;;5.07;3.17;;;24.10;99.90;;;;;;5067256;28;20187;-66
2022/05/16 12:45:20;;;;;;;3.92;2.40;;;24.10;99.90;;;;;;5067536;28;20168;-66
2022/05/16 12:48:23;;;;;;;8.48;3.00;;;24.30;99.90;;;;;;5065936;28;20667;-66
2022/05/16 12:50:57;;;;;;;6.32;2.63;;;24.50;99.90;;;;;;5067892;28;20208;-66
2022/05/16 12:53:55;;;;;;;12.73;2.92;;;24.90;99.90;;;;;;5070153;28;20169;-65
2022/05/16 12:56:23;;;;;;;11.30;3.00;;;24.70;99.90;;;;;;5066467;28;20801;-66
2022/05/16 12:58:55;;;;;;;8.55;3.03;;;24.70;99.90;;;;;;5067052;28;20232;-67
2022/05/16 13:01:39;;;;;;;8.07;2.85;;;24.90;99.90;;;;;;5068878;28;20268;-65
2022/05/16 13:04:19;;;;;;;9.23;2.75;;;25.00;99.90;;;;;;5066820;28;20170;-66
2022/05/16 13:07:03;;;;;;;6.75;2.60;;;24.80;99.90;;;;;;5066836;28;20177;-66
2022/05/16 13:09:46;;;;;;;8.15;3.17;;;24.80;99.90;;;;;;5067300;28;20198;-66
2022/05/16 13:12:47;;;;;;;5.15;2.90;;;24.70;99.90;;;;;;5074033;28;20188;-66
2022/05/16 13:15:26;;;;;;;6.03;2.97;;;24.90;99.90;;;;;;5089224;28;20175;-65
2022/05/16 13:17:56;;;;;;;4.13;3.05;;;24.60;99.90;;;;;;5081545;28;20627;-66
2022/05/16 13:20:26;;;;;;;7.38;3.55;;;24.60;99.90;;;;;;5084002;28;20200;-67
2022/05/16 13:22:54;;;;;;;9.25;3.10;;;24.50;99.90;;;;;;5090339;28;20176;-66
2022/05/16 13:25:23;;;;;;;6.95;2.80;;;24.60;99.90;;;;;;5077878;28;20183;-66
2022/05/16 13:30:45;;;;;;;8.00;2.38;;;24.50;99.90;;;;;;5086514;28;20210;-66
2022/05/16 13:33:23;;;;;;;7.70;2.72;;;24.10;99.90;;;;;;5073441;28;20196;-67
2022/05/16 13:35:48;;;;;;;7.80;2.40;;;24.50;99.90;;;;;;5087643;28;20259;-67
2022/05/16 13:38:14;;;;;;;4.53;2.40;;;24.90;99.90;;;;;;5083879;28;20321;-67
2022/05/16 13:40:42;;;;;;;4.97;2.15;;;25.00;99.90;;;;;;5080073;28;20200;-66
2022/05/16 13:43:15;;;;;;;5.90;2.53;;;24.70;99.90;;;;;;5090643;28;20269;-66